Terminal Aerodrome Forecast
Issued by NWS Central Illinois

Home | Current Version | Previous Version | Text Only | Print | Product List | Glossary On
Versions: 1 2 3 4 5 6 7 8 9 10 11 12 13 14 15 16 17 18
939
FTUS43 KILX 232038 AAB
TAFSPI
TAF AMD
KSPI 232038Z 2321/2418 VRB03KT P6SM -SHRA SCT025 OVC060
     FM240000 VRB03KT P6SM VCSH BKN035
     FM241100 33005KT 4SM BR OVC008=

USA.gov is the U.S. government's official web portal to all federal, state and local government web resources and services.